sensor_id;sensor_type;location;lat;lon;timestamp;temperature;humidity
23411;DHT22;11878;51.774;7.220;2023-12-20T00:00:20;6.80;99.90
23411;DHT22;11878;51.774;7.220;2023-12-20T00:03:22;6.80;99.90
23411;DHT22;11878;51.774;7.220;2023-12-20T00:06:25;6.90;99.90
23411;DHT22;11878;51.774;7.220;2023-12-20T00:09:27;7.00;99.90
23411;DHT22;11878;51.774;7.220;2023-12-20T00:12:29;6.90;99.90
23411;DHT22;11878;51.774;7.220;2023-12-20T00:15:31;6.90;99.90
23411;DHT22;11878;51.774;7.220;2023-12-20T00:18:32;7.00;99.90
23411;DHT22;11878;51.774;7.220;2023-12-20T00:21:34;7.00;99.90
23411;DHT22;11878;51.774;7.220;2023-12-20T00:24:36;7.10;99.90
23411;DHT22;11878;51.774;7.220;2023-12-20T00:27:38;7.00;99.90
23411;DHT22;11878;51.774;7.220;2023-12-20T00:30:40;7.00;99.90
23411;DHT22;11878;51.774;7.220;2023-12-20T00:33:42;6.90;99.90
23411;DHT22;11878;51.774;7.220;2023-12-20T00:36:45;6.90;99.90
23411;DHT22;11878;51.774;7.220;2023-12-20T00:39:47;6.90;99.90
23411;DHT22;11878;51.774;7.220;2023-12-20T00:42:49;6.80;99.90
23411;DHT22;11878;51.774;7.220;2023-12-20T00:45:51;6.80;99.90
23411;DHT22;11878;51.774;7.220;2023-12-20T00:48:53;6.80;99.90
23411;DHT22;11878;51.774;7.220;2023-12-20T00:51:55;6.80;99.90
23411;DHT22;11878;51.774;7.220;2023-12-20T00:54:57;6.80;99.90
23411;DHT22;11878;51.774;7.220;2023-12-20T00:57:59;6.80;99.90
23411;DHT22;11878;51.774;7.220;2023-12-20T01:01:01;6.80;99.90
23411;DHT22;11878;51.774;7.220;2023-12-20T01:04:04;6.60;99.90
23411;DHT22;11878;51.774;7.220;2023-12-20T01:07:06;6.60;99.90
23411;DHT22;11878;51.774;7.220;2023-12-20T01:10:08;6.70;99.90
23411;DHT22;11878;51.774;7.220;2023-12-20T01:13:10;6.60;99.90
23411;DHT22;11878;51.774;7.220;2023-12-20T01:16:12;6.60;99.90
23411;DHT22;11878;51.774;7.220;2023-12-20T01:19:14;6.50;99.90
23411;DHT22;11878;51.774;7.220;2023-12-20T01:22:16;6.50;99.90
23411;DHT22;11878;51.774;7.220;2023-12-20T01:25:18;6.40;99.90
23411;DHT22;11878;51.774;7.220;2023-12-20T01:28:20;6.30;99.90
23411;DHT22;11878;51.774;7.220;2023-12-20T01:31:22;6.30;99.90
23411;DHT22;11878;51.774;7.220;2023-12-20T01:34:24;6.30;99.90
23411;DHT22;11878;51.774;7.220;2023-12-20T01:37:26;6.30;99.90
23411;DHT22;11878;51.774;7.220;2023-12-20T01:40:30;6.40;99.90
23411;DHT22;11878;51.774;7.220;2023-12-20T01:43:32;6.50;99.90
23411;DHT22;11878;51.774;7.220;2023-12-20T01:46:48;6.50;99.90
23411;DHT22;11878;51.774;7.220;2023-12-20T01:49:50;6.50;99.90
23411;DHT22;11878;51.774;7.220;2023-12-20T01:52:54;6.50;99.90
23411;DHT22;11878;51.774;7.220;2023-12-20T01:55:59;6.50;99.90
23411;DHT22;11878;51.774;7.220;2023-12-20T01:59:01;8.00;99.90
23411;DHT22;11878;51.774;7.220;2023-12-20T02:02:04;6.40;99.90
23411;DHT22;11878;51.774;7.220;2023-12-20T02:05:07;6.40;99.90
23411;DHT22;11878;51.774;7.220;2023-12-20T02:08:10;6.40;99.90
23411;DHT22;11878;51.774;7.220;2023-12-20T02:11:11;6.40;99.90
23411;DHT22;11878;51.774;7.220;2023-12-20T02:14:13;6.50;99.90
23411;DHT22;11878;51.774;7.220;2023-12-20T02:17:16;6.40;99.90
23411;DHT22;11878;51.774;7.220;2023-12-20T02:20:18;6.40;99.90
23411;DHT22;11878;51.774;7.220;2023-12-20T02:23:19;6.40;99.90
23411;DHT22;11878;51.774;7.220;2023-12-20T02:26:25;6.40;99.90
23411;DHT22;11878;51.774;7.220;2023-12-20T02:29:27;6.30;99.90
23411;DHT22;11878;51.774;7.220;2023-12-20T02:32:29;6.30;99.90
23411;DHT22;11878;51.774;7.220;2023-12-20T02:35:31;6.30;99.90
23411;DHT22;11878;51.774;7.220;2023-12-20T02:38:32;6.20;99.90
23411;DHT22;11878;51.774;7.220;2023-12-20T02:41:35;6.20;99.90
23411;DHT22;11878;51.774;7.220;2023-12-20T02:44:37;6.20;99.90
23411;DHT22;11878;51.774;7.220;2023-12-20T02:47:39;6.20;99.90
23411;DHT22;11878;51.774;7.220;2023-12-20T02:50:41;6.20;99.90
23411;DHT22;11878;51.774;7.220;2023-12-20T02:53:43;6.20;99.90
23411;DHT22;11878;51.774;7.220;2023-12-20T02:56:44;6.10;99.90
23411;DHT22;11878;51.774;7.220;2023-12-20T02:59:46;6.10;99.90
23411;DHT22;11878;51.774;7.220;2023-12-20T03:02:48;6.10;99.90
23411;DHT22;11878;51.774;7.220;2023-12-20T03:05:50;6.10;99.90
23411;DHT22;11878;51.774;7.220;2023-12-20T03:08:52;6.10;99.90
23411;DHT22;11878;51.774;7.220;2023-12-20T03:11:53;6.00;99.90
23411;DHT22;11878;51.774;7.220;2023-12-20T03:14:55;6.00;99.90
23411;DHT22;11878;51.774;7.220;2023-12-20T03:17:57;6.00;99.90
23411;DHT22;11878;51.774;7.220;2023-12-20T03:21:00;5.90;99.90
23411;DHT22;11878;51.774;7.220;2023-12-20T03:24:02;6.00;99.90
23411;DHT22;11878;51.774;7.220;2023-12-20T03:27:04;6.00;99.90
23411;DHT22;11878;51.774;7.220;2023-12-20T03:30:06;5.90;99.90
23411;DHT22;11878;51.774;7.220;2023-12-20T03:33:08;6.00;99.90
23411;DHT22;11878;51.774;7.220;2023-12-20T03:36:10;6.00;99.90
23411;DHT22;11878;51.774;7.220;2023-12-20T03:39:12;5.90;99.90
23411;DHT22;11878;51.774;7.220;2023-12-20T03:42:14;5.80;99.90
23411;DHT22;11878;51.774;7.220;2023-12-20T03:45:16;5.70;99.90
23411;DHT22;11878;51.774;7.220;2023-12-20T03:48:27;5.70;99.90
23411;DHT22;11878;51.774;7.220;2023-12-20T03:51:29;8.30;99.90
23411;DHT22;11878;51.774;7.220;2023-12-20T03:54:31;5.70;99.90
23411;DHT22;11878;51.774;7.220;2023-12-20T03:57:32;5.70;99.90
23411;DHT22;11878;51.774;7.220;2023-12-20T04:00:35;5.70;99.90
23411;DHT22;11878;51.774;7.220;2023-12-20T04:03:37;5.80;99.90
23411;DHT22;11878;51.774;7.220;2023-12-20T04:06:39;5.70;99.90
23411;DHT22;11878;51.774;7.220;2023-12-20T04:09:41;5.70;99.90
23411;DHT22;11878;51.774;7.220;2023-12-20T04:12:43;5.80;99.90
23411;DHT22;11878;51.774;7.220;2023-12-20T04:15:45;5.70;99.90
23411;DHT22;11878;51.774;7.220;2023-12-20T04:18:47;5.70;99.90
23411;DHT22;11878;51.774;7.220;2023-12-20T04:21:49;5.80;99.90
23411;DHT22;11878;51.774;7.220;2023-12-20T04:24:50;5.70;99.90
23411;DHT22;11878;51.774;7.220;2023-12-20T04:27:52;5.70;99.90
23411;DHT22;11878;51.774;7.220;2023-12-20T04:30:54;5.70;99.90
23411;DHT22;11878;51.774;7.220;2023-12-20T04:33:56;5.70;99.90
23411;DHT22;11878;51.774;7.220;2023-12-20T04:36:58;5.80;99.90
23411;DHT22;11878;51.774;7.220;2023-12-20T04:39:59;5.80;99.90
23411;DHT22;11878;51.774;7.220;2023-12-20T04:43:01;5.90;99.90
23411;DHT22;11878;51.774;7.220;2023-12-20T04:46:03;5.90;99.90
23411;DHT22;11878;51.774;7.220;2023-12-20T04:49:05;5.80;99.90
23411;DHT22;11878;51.774;7.220;2023-12-20T04:52:07;5.90;99.90
23411;DHT22;11878;51.774;7.220;2023-12-20T04:55:09;5.90;99.90
23411;DHT22;11878;51.774;7.220;2023-12-20T04:58:11;5.90;99.90
23411;DHT22;11878;51.774;7.220;2023-12-20T05:01:13;5.90;99.90
23411;DHT22;11878;51.774;7.220;2023-12-20T05:04:15;5.90;99.90
23411;DHT22;11878;51.774;7.220;2023-12-20T05:07:17;5.90;99.90
23411;DHT22;11878;51.774;7.220;2023-12-20T05:10:19;5.90;99.90
23411;DHT22;11878;51.774;7.220;2023-12-20T05:13:21;5.80;99.90
23411;DHT22;11878;51.774;7.220;2023-12-20T05:16:27;5.70;99.90
23411;DHT22;11878;51.774;7.220;2023-12-20T05:19:28;5.80;99.90
23411;DHT22;11878;51.774;7.220;2023-12-20T05:22:30;5.80;99.90
23411;DHT22;11878;51.774;7.220;2023-12-20T05:25:32;5.80;99.90
23411;DHT22;11878;51.774;7.220;2023-12-20T05:28:34;5.80;99.90
23411;DHT22;11878;51.774;7.220;2023-12-20T05:31:36;5.80;99.90
23411;DHT22;11878;51.774;7.220;2023-12-20T05:34:38;5.80;99.90
23411;DHT22;11878;51.774;7.220;2023-12-20T05:37:40;5.90;99.90
23411;DHT22;11878;51.774;7.220;2023-12-20T05:40:42;5.90;99.90
23411;DHT22;11878;51.774;7.220;2023-12-20T05:43:43;5.80;99.90
23411;DHT22;11878;51.774;7.220;2023-12-20T05:46:45;5.80;99.90
23411;DHT22;11878;51.774;7.220;2023-12-20T05:49:47;5.80;99.90
23411;DHT22;11878;51.774;7.220;2023-12-20T05:52:49;5.90;99.90
23411;DHT22;11878;51.774;7.220;2023-12-20T05:55:52;5.90;99.90
23411;DHT22;11878;51.774;7.220;2023-12-20T05:58:53;5.90;99.90
23411;DHT22;11878;51.774;7.220;2023-12-20T06:01:55;5.90;99.90
23411;DHT22;11878;51.774;7.220;2023-12-20T06:04:57;5.90;99.90
23411;DHT22;11878;51.774;7.220;2023-12-20T06:07:59;5.90;99.90
23411;DHT22;11878;51.774;7.220;2023-12-20T06:11:04;6.00;99.90
23411;DHT22;11878;51.774;7.220;2023-12-20T06:14:07;6.00;99.90
23411;DHT22;11878;51.774;7.220;2023-12-20T06:17:08;6.00;99.90
23411;DHT22;11878;51.774;7.220;2023-12-20T06:20:10;6.10;99.90
23411;DHT22;11878;51.774;7.220;2023-12-20T06:23:12;6.00;99.90
23411;DHT22;11878;51.774;7.220;2023-12-20T06:26:14;6.00;99.90
23411;DHT22;11878;51.774;7.220;2023-12-20T06:29:16;6.10;99.90
23411;DHT22;11878;51.774;7.220;2023-12-20T06:32:18;6.10;99.90
23411;DHT22;11878;51.774;7.220;2023-12-20T06:35:20;6.10;99.90
23411;DHT22;11878;51.774;7.220;2023-12-20T06:38:22;6.10;99.90
23411;DHT22;11878;51.774;7.220;2023-12-20T06:41:24;6.10;99.90
23411;DHT22;11878;51.774;7.220;2023-12-20T06:44:26;6.10;99.90
23411;DHT22;11878;51.774;7.220;2023-12-20T06:47:28;6.10;99.90
23411;DHT22;11878;51.774;7.220;2023-12-20T06:50:29;6.10;99.90
23411;DHT22;11878;51.774;7.220;2023-12-20T06:53:31;6.10;99.90
23411;DHT22;11878;51.774;7.220;2023-12-20T06:56:33;6.10;99.90
23411;DHT22;11878;51.774;7.220;2023-12-20T06:59:41;6.20;99.90
23411;DHT22;11878;51.774;7.220;2023-12-20T07:02:44;6.20;99.90
23411;DHT22;11878;51.774;7.220;2023-12-20T07:05:45;6.10;99.90
23411;DHT22;11878;51.774;7.220;2023-12-20T07:08:47;6.10;99.90
23411;DHT22;11878;51.774;7.220;2023-12-20T07:11:49;6.20;99.90
23411;DHT22;11878;51.774;7.220;2023-12-20T07:14:51;6.10;99.90
23411;DHT22;11878;51.774;7.220;2023-12-20T07:17:53;6.20;99.90
23411;DHT22;11878;51.774;7.220;2023-12-20T07:20:55;6.20;99.90
23411;DHT22;11878;51.774;7.220;2023-12-20T07:23:57;6.20;99.90
23411;DHT22;11878;51.774;7.220;2023-12-20T07:27:02;6.20;99.90
23411;DHT22;11878;51.774;7.220;2023-12-20T07:30:04;6.20;99.90
23411;DHT22;11878;51.774;7.220;2023-12-20T07:33:06;6.20;99.90
23411;DHT22;11878;51.774;7.220;2023-12-20T07:36:11;6.30;99.90
23411;DHT22;11878;51.774;7.220;2023-12-20T07:39:14;6.30;99.90
23411;DHT22;11878;51.774;7.220;2023-12-20T07:42:15;6.30;99.90
23411;DHT22;11878;51.774;7.220;2023-12-20T07:45:17;6.30;99.90
23411;DHT22;11878;51.774;7.220;2023-12-20T07:48:19;6.30;99.90
23411;DHT22;11878;51.774;7.220;2023-12-20T07:51:21;6.30;99.90
23411;DHT22;11878;51.774;7.220;2023-12-20T07:54:23;6.30;99.90
23411;DHT22;11878;51.774;7.220;2023-12-20T07:57:25;6.30;99.90
23411;DHT22;11878;51.774;7.220;2023-12-20T08:00:27;6.40;99.90
23411;DHT22;11878;51.774;7.220;2023-12-20T08:03:29;6.40;99.90
23411;DHT22;11878;51.774;7.220;2023-12-20T08:06:30;6.40;99.90
23411;DHT22;11878;51.774;7.220;2023-12-20T08:09:32;6.40;99.90
23411;DHT22;11878;51.774;7.220;2023-12-20T08:12:35;8.20;99.90
23411;DHT22;11878;51.774;7.220;2023-12-20T08:15:37;6.50;99.90
23411;DHT22;11878;51.774;7.220;2023-12-20T08:18:39;6.50;99.90
23411;DHT22;11878;51.774;7.220;2023-12-20T08:21:41;6.50;99.90
23411;DHT22;11878;51.774;7.220;2023-12-20T08:24:43;6.60;99.90
23411;DHT22;11878;51.774;7.220;2023-12-20T08:27:45;6.60;99.90
23411;DHT22;11878;51.774;7.220;2023-12-20T08:30:48;6.60;99.90
23411;DHT22;11878;51.774;7.220;2023-12-20T08:33:50;6.60;99.90
23411;DHT22;11878;51.774;7.220;2023-12-20T08:36:53;6.60;99.90
23411;DHT22;11878;51.774;7.220;2023-12-20T08:39:55;6.60;99.90
23411;DHT22;11878;51.774;7.220;2023-12-20T08:42:57;6.60;99.90
23411;DHT22;11878;51.774;7.220;2023-12-20T08:45:59;6.70;99.90
23411;DHT22;11878;51.774;7.220;2023-12-20T08:49:02;6.70;99.90
23411;DHT22;11878;51.774;7.220;2023-12-20T08:52:04;6.70;99.90
23411;DHT22;11878;51.774;7.220;2023-12-20T08:55:07;6.70;99.90
23411;DHT22;11878;51.774;7.220;2023-12-20T08:58:09;6.70;99.90
23411;DHT22;11878;51.774;7.220;2023-12-20T09:01:11;6.80;99.90
23411;DHT22;11878;51.774;7.220;2023-12-20T09:04:13;6.80;99.90
23411;DHT22;11878;51.774;7.220;2023-12-20T09:10:25;6.80;99.90
23411;DHT22;11878;51.774;7.220;2023-12-20T09:13:26;6.80;99.90
23411;DHT22;11878;51.774;7.220;2023-12-20T09:16:30;6.80;99.90
23411;DHT22;11878;51.774;7.220;2023-12-20T09:19:33;6.90;99.90
23411;DHT22;11878;51.774;7.220;2023-12-20T09:22:35;6.90;99.90
23411;DHT22;11878;51.774;7.220;2023-12-20T09:25:37;6.90;99.90
23411;DHT22;11878;51.774;7.220;2023-12-20T09:28:39;6.90;99.90
23411;DHT22;11878;51.774;7.220;2023-12-20T09:31:42;7.00;99.90
23411;DHT22;11878;51.774;7.220;2023-12-20T09:34:45;6.90;99.90
23411;DHT22;11878;51.774;7.220;2023-12-20T09:37:47;7.00;99.90
23411;DHT22;11878;51.774;7.220;2023-12-20T09:40:49;7.00;99.90
23411;DHT22;11878;51.774;7.220;2023-12-20T09:43:53;7.00;99.90
23411;DHT22;11878;51.774;7.220;2023-12-20T09:46:56;6.90;99.90
23411;DHT22;11878;51.774;7.220;2023-12-20T09:49:59;7.00;99.90
23411;DHT22;11878;51.774;7.220;2023-12-20T09:53:05;7.00;99.90
23411;DHT22;11878;51.774;7.220;2023-12-20T09:56:11;7.00;99.90
23411;DHT22;11878;51.774;7.220;2023-12-20T09:59:14;7.00;99.90
23411;DHT22;11878;51.774;7.220;2023-12-20T10:02:18;6.90;99.90
23411;DHT22;11878;51.774;7.220;2023-12-20T10:05:28;7.20;99.90
23411;DHT22;11878;51.774;7.220;2023-12-20T10:08:34;6.90;99.90
23411;DHT22;11878;51.774;7.220;2023-12-20T10:11:37;6.90;99.90
23411;DHT22;11878;51.774;7.220;2023-12-20T10:14:39;6.90;99.90
23411;DHT22;11878;51.774;7.220;2023-12-20T10:17:41;6.90;99.90
23411;DHT22;11878;51.774;7.220;2023-12-20T10:20:44;6.80;99.90
23411;DHT22;11878;51.774;7.220;2023-12-20T10:23:46;6.90;99.90
23411;DHT22;11878;51.774;7.220;2023-12-20T10:27:07;6.90;99.90
23411;DHT22;11878;51.774;7.220;2023-12-20T10:30:09;6.90;99.90
23411;DHT22;11878;51.774;7.220;2023-12-20T10:33:11;7.00;99.90
23411;DHT22;11878;51.774;7.220;2023-12-20T10:36:13;7.00;99.90
23411;DHT22;11878;51.774;7.220;2023-12-20T10:39:15;7.00;99.90
23411;DHT22;11878;51.774;7.220;2023-12-20T10:42:21;7.00;99.90
23411;DHT22;11878;51.774;7.220;2023-12-20T10:45:23;7.00;99.90
23411;DHT22;11878;51.774;7.220;2023-12-20T10:48:26;7.00;99.90
23411;DHT22;11878;51.774;7.220;2023-12-20T10:51:33;7.00;99.90
23411;DHT22;11878;51.774;7.220;2023-12-20T10:54:35;7.00;99.90
23411;DHT22;11878;51.774;7.220;2023-12-20T10:57:37;7.00;99.90
23411;DHT22;11878;51.774;7.220;2023-12-20T11:00:40;7.00;99.90
23411;DHT22;11878;51.774;7.220;2023-12-20T11:03:49;7.00;99.90
23411;DHT22;11878;51.774;7.220;2023-12-20T11:07:08;7.00;99.90
23411;DHT22;11878;51.774;7.220;2023-12-20T11:10:22;7.10;99.90
23411;DHT22;11878;51.774;7.220;2023-12-20T11:13:31;7.00;99.90
23411;DHT22;11878;51.774;7.220;2023-12-20T11:16:37;7.20;99.90
23411;DHT22;11878;51.774;7.220;2023-12-20T11:22:54;7.10;99.90
23411;DHT22;11878;51.774;7.220;2023-12-20T11:25:57;7.10;99.90
23411;DHT22;11878;51.774;7.220;2023-12-20T11:29:40;7.30;99.90
23411;DHT22;11878;51.774;7.220;2023-12-20T11:32:42;7.40;99.90
23411;DHT22;11878;51.774;7.220;2023-12-20T11:35:46;7.60;99.90
23411;DHT22;11878;51.774;7.220;2023-12-20T11:38:55;7.40;99.90
23411;DHT22;11878;51.774;7.220;2023-12-20T11:42:04;7.50;99.90
23411;DHT22;11878;51.774;7.220;2023-12-20T11:45:26;7.40;99.90
23411;DHT22;11878;51.774;7.220;2023-12-20T11:48:34;7.50;99.90
23411;DHT22;11878;51.774;7.220;2023-12-20T11:51:40;7.60;99.90
23411;DHT22;11878;51.774;7.220;2023-12-20T11:54:42;7.60;99.90
23411;DHT22;11878;51.774;7.220;2023-12-20T11:57:44;7.70;99.90
23411;DHT22;11878;51.774;7.220;2023-12-20T12:00:49;7.70;99.90
23411;DHT22;11878;51.774;7.220;2023-12-20T12:04:05;7.70;99.90
23411;DHT22;11878;51.774;7.220;2023-12-20T12:07:07;7.70;99.90
23411;DHT22;11878;51.774;7.220;2023-12-20T12:10:09;7.80;99.90
23411;DHT22;11878;51.774;7.220;2023-12-20T12:13:11;7.80;99.90
23411;DHT22;11878;51.774;7.220;2023-12-20T12:16:22;7.90;99.90
23411;DHT22;11878;51.774;7.220;2023-12-20T12:19:25;7.70;99.90
23411;DHT22;11878;51.774;7.220;2023-12-20T12:22:28;7.70;99.90
23411;DHT22;11878;51.774;7.220;2023-12-20T12:25:32;7.50;99.90
23411;DHT22;11878;51.774;7.220;2023-12-20T12:28:34;7.40;99.90
23411;DHT22;11878;51.774;7.220;2023-12-20T12:31:37;8.60;99.90
23411;DHT22;11878;51.774;7.220;2023-12-20T12:34:39;7.40;99.90
23411;DHT22;11878;51.774;7.220;2023-12-20T12:37:42;7.40;99.90
23411;DHT22;11878;51.774;7.220;2023-12-20T12:40:44;7.40;99.90
23411;DHT22;11878;51.774;7.220;2023-12-20T12:43:46;7.50;99.90
23411;DHT22;11878;51.774;7.220;2023-12-20T12:46:48;7.60;99.90
23411;DHT22;11878;51.774;7.220;2023-12-20T12:49:55;10.80;99.90
23411;DHT22;11878;51.774;7.220;2023-12-20T12:52:56;8.10;99.90
23411;DHT22;11878;51.774;7.220;2023-12-20T12:55:58;8.10;99.90
23411;DHT22;11878;51.774;7.220;2023-12-20T12:59:00;8.70;99.90
23411;DHT22;11878;51.774;7.220;2023-12-20T13:02:02;8.20;99.90
23411;DHT22;11878;51.774;7.220;2023-12-20T13:05:06;8.30;99.90
23411;DHT22;11878;51.774;7.220;2023-12-20T13:08:08;8.60;99.90
23411;DHT22;11878;51.774;7.220;2023-12-20T13:11:11;8.20;99.90
23411;DHT22;11878;51.774;7.220;2023-12-20T13:14:13;8.10;99.90
23411;DHT22;11878;51.774;7.220;2023-12-20T13:17:17;8.00;99.90
23411;DHT22;11878;51.774;7.220;2023-12-20T13:20:18;8.00;99.90
23411;DHT22;11878;51.774;7.220;2023-12-20T13:23:20;7.90;99.90
23411;DHT22;11878;51.774;7.220;2023-12-20T13:26:22;7.90;99.90
23411;DHT22;11878;51.774;7.220;2023-12-20T13:29:24;7.90;99.90
23411;DHT22;11878;51.774;7.220;2023-12-20T13:32:40;7.90;99.90
23411;DHT22;11878;51.774;7.220;2023-12-20T13:35:43;7.90;99.90
23411;DHT22;11878;51.774;7.220;2023-12-20T13:38:45;7.90;99.90
23411;DHT22;11878;51.774;7.220;2023-12-20T13:41:47;8.00;99.90
23411;DHT22;11878;51.774;7.220;2023-12-20T13:44:49;7.90;99.90
23411;DHT22;11878;51.774;7.220;2023-12-20T13:47:51;7.90;99.90
23411;DHT22;11878;51.774;7.220;2023-12-20T13:50:53;7.90;99.90
23411;DHT22;11878;51.774;7.220;2023-12-20T13:53:56;7.90;99.90
23411;DHT22;11878;51.774;7.220;2023-12-20T13:56:58;7.90;99.90
23411;DHT22;11878;51.774;7.220;2023-12-20T14:00:17;7.80;99.90
23411;DHT22;11878;51.774;7.220;2023-12-20T14:03:18;7.80;99.90
23411;DHT22;11878;51.774;7.220;2023-12-20T14:06:21;7.80;99.90
23411;DHT22;11878;51.774;7.220;2023-12-20T14:09:23;7.80;99.90
23411;DHT22;11878;51.774;7.220;2023-12-20T14:12:25;7.80;99.90
23411;DHT22;11878;51.774;7.220;2023-12-20T14:15:27;7.70;99.90
23411;DHT22;11878;51.774;7.220;2023-12-20T14:18:29;7.70;99.90
23411;DHT22;11878;51.774;7.220;2023-12-20T14:21:32;7.70;99.90
23411;DHT22;11878;51.774;7.220;2023-12-20T14:24:35;7.70;99.90
23411;DHT22;11878;51.774;7.220;2023-12-20T14:27:39;7.60;99.90
23411;DHT22;11878;51.774;7.220;2023-12-20T14:30:41;7.70;99.90
23411;DHT22;11878;51.774;7.220;2023-12-20T14:33:43;7.60;99.90
23411;DHT22;11878;51.774;7.220;2023-12-20T14:36:45;7.60;99.90
23411;DHT22;11878;51.774;7.220;2023-12-20T14:39:47;7.50;99.90
23411;DHT22;11878;51.774;7.220;2023-12-20T14:42:49;7.50;99.90
23411;DHT22;11878;51.774;7.220;2023-12-20T14:45:51;7.50;99.90
23411;DHT22;11878;51.774;7.220;2023-12-20T14:48:52;7.40;99.90
23411;DHT22;11878;51.774;7.220;2023-12-20T14:51:54;7.50;99.90
23411;DHT22;11878;51.774;7.220;2023-12-20T14:54:56;7.50;99.90
23411;DHT22;11878;51.774;7.220;2023-12-20T14:57:58;7.40;99.90
23411;DHT22;11878;51.774;7.220;2023-12-20T15:01:00;7.40;99.90
23411;DHT22;11878;51.774;7.220;2023-12-20T15:04:03;7.40;99.90
23411;DHT22;11878;51.774;7.220;2023-12-20T15:07:05;7.30;99.90
23411;DHT22;11878;51.774;7.220;2023-12-20T15:10:08;7.30;99.90
23411;DHT22;11878;51.774;7.220;2023-12-20T15:13:10;7.30;99.90
23411;DHT22;11878;51.774;7.220;2023-12-20T15:16:13;7.30;99.90
23411;DHT22;11878;51.774;7.220;2023-12-20T15:19:15;7.30;99.90
23411;DHT22;11878;51.774;7.220;2023-12-20T15:22:18;7.40;99.90
23411;DHT22;11878;51.774;7.220;2023-12-20T15:25:19;7.30;99.90
23411;DHT22;11878;51.774;7.220;2023-12-20T15:28:23;7.30;99.90
23411;DHT22;11878;51.774;7.220;2023-12-20T15:31:25;7.30;99.90
23411;DHT22;11878;51.774;7.220;2023-12-20T15:34:28;7.30;99.90
23411;DHT22;11878;51.774;7.220;2023-12-20T15:37:30;7.30;99.90
23411;DHT22;11878;51.774;7.220;2023-12-20T15:40:32;7.30;99.90
23411;DHT22;11878;51.774;7.220;2023-12-20T15:43:34;7.30;99.90
23411;DHT22;11878;51.774;7.220;2023-12-20T15:46:38;7.30;99.90
23411;DHT22;11878;51.774;7.220;2023-12-20T15:49:40;7.30;99.90
23411;DHT22;11878;51.774;7.220;2023-12-20T15:52:42;7.30;99.90
23411;DHT22;11878;51.774;7.220;2023-12-20T15:55:45;7.40;99.90
23411;DHT22;11878;51.774;7.220;2023-12-20T15:58:46;7.40;99.90
23411;DHT22;11878;51.774;7.220;2023-12-20T16:01:50;7.30;99.90
23411;DHT22;11878;51.774;7.220;2023-12-20T16:04:55;7.40;99.90
23411;DHT22;11878;51.774;7.220;2023-12-20T16:07:57;7.40;99.90
23411;DHT22;11878;51.774;7.220;2023-12-20T16:10:59;7.40;99.90
23411;DHT22;11878;51.774;7.220;2023-12-20T16:14:01;7.40;99.90
23411;DHT22;11878;51.774;7.220;2023-12-20T16:17:03;7.40;99.90
23411;DHT22;11878;51.774;7.220;2023-12-20T16:20:07;7.30;99.90
23411;DHT22;11878;51.774;7.220;2023-12-20T16:23:10;7.40;99.90
23411;DHT22;11878;51.774;7.220;2023-12-20T16:26:12;7.40;99.90
23411;DHT22;11878;51.774;7.220;2023-12-20T16:29:15;7.40;99.90
23411;DHT22;11878;51.774;7.220;2023-12-20T16:32:17;6.00;99.90
23411;DHT22;11878;51.774;7.220;2023-12-20T16:35:18;7.40;99.90
23411;DHT22;11878;51.774;7.220;2023-12-20T16:38:20;7.40;99.90
23411;DHT22;11878;51.774;7.220;2023-12-20T16:41:22;7.40;99.90
23411;DHT22;11878;51.774;7.220;2023-12-20T16:44:24;7.40;99.90
23411;DHT22;11878;51.774;7.220;2023-12-20T16:47:25;7.40;99.90
23411;DHT22;11878;51.774;7.220;2023-12-20T16:50:27;7.40;99.90
23411;DHT22;11878;51.774;7.220;2023-12-20T16:53:29;7.40;99.90
23411;DHT22;11878;51.774;7.220;2023-12-20T16:56:31;7.40;99.90
23411;DHT22;11878;51.774;7.220;2023-12-20T16:59:33;7.30;99.90
23411;DHT22;11878;51.774;7.220;2023-12-20T17:02:35;7.40;99.90
23411;DHT22;11878;51.774;7.220;2023-12-20T17:05:37;7.30;99.90
23411;DHT22;11878;51.774;7.220;2023-12-20T17:08:40;7.40;99.90
23411;DHT22;11878;51.774;7.220;2023-12-20T17:11:41;6.50;99.90
23411;DHT22;11878;51.774;7.220;2023-12-20T17:14:43;9.10;99.90
23411;DHT22;11878;51.774;7.220;2023-12-20T17:17:46;7.40;99.90
23411;DHT22;11878;51.774;7.220;2023-12-20T17:20:48;7.40;99.90
23411;DHT22;11878;51.774;7.220;2023-12-20T17:23:50;7.40;99.90
23411;DHT22;11878;51.774;7.220;2023-12-20T17:26:51;7.40;99.90
23411;DHT22;11878;51.774;7.220;2023-12-20T17:29:53;7.40;99.90
23411;DHT22;11878;51.774;7.220;2023-12-20T17:32:55;7.40;99.90
23411;DHT22;11878;51.774;7.220;2023-12-20T17:35:57;7.40;99.90
23411;DHT22;11878;51.774;7.220;2023-12-20T17:38:59;7.30;99.90
23411;DHT22;11878;51.774;7.220;2023-12-20T17:42:01;7.30;99.90
23411;DHT22;11878;51.774;7.220;2023-12-20T17:45:03;7.30;99.90
23411;DHT22;11878;51.774;7.220;2023-12-20T17:48:06;7.30;99.90
23411;DHT22;11878;51.774;7.220;2023-12-20T17:51:08;7.40;99.90
23411;DHT22;11878;51.774;7.220;2023-12-20T17:54:10;7.40;99.90
23411;DHT22;11878;51.774;7.220;2023-12-20T17:57:11;7.40;99.90
23411;DHT22;11878;51.774;7.220;2023-12-20T18:00:19;7.30;99.90
23411;DHT22;11878;51.774;7.220;2023-12-20T18:03:21;7.40;99.90
23411;DHT22;11878;51.774;7.220;2023-12-20T18:06:23;7.30;99.90
23411;DHT22;11878;51.774;7.220;2023-12-20T18:09:25;7.30;99.90
23411;DHT22;11878;51.774;7.220;2023-12-20T18:12:27;7.40;99.90
23411;DHT22;11878;51.774;7.220;2023-12-20T18:15:29;7.40;99.90
23411;DHT22;11878;51.774;7.220;2023-12-20T18:18:31;7.40;99.90
23411;DHT22;11878;51.774;7.220;2023-12-20T18:21:33;7.40;99.90
23411;DHT22;11878;51.774;7.220;2023-12-20T18:24:35;7.40;99.90
23411;DHT22;11878;51.774;7.220;2023-12-20T18:27:37;7.40;99.90
23411;DHT22;11878;51.774;7.220;2023-12-20T18:30:39;7.40;99.90
23411;DHT22;11878;51.774;7.220;2023-12-20T18:33:41;7.30;99.90
23411;DHT22;11878;51.774;7.220;2023-12-20T18:36:42;7.40;99.90
23411;DHT22;11878;51.774;7.220;2023-12-20T18:39:44;7.40;99.90
23411;DHT22;11878;51.774;7.220;2023-12-20T18:42:48;8.70;99.90
23411;DHT22;11878;51.774;7.220;2023-12-20T18:45:50;7.30;99.90
23411;DHT22;11878;51.774;7.220;2023-12-20T18:48:52;7.30;99.90
23411;DHT22;11878;51.774;7.220;2023-12-20T18:51:55;7.40;99.90
23411;DHT22;11878;51.774;7.220;2023-12-20T18:54:57;7.30;99.90
23411;DHT22;11878;51.774;7.220;2023-12-20T18:57:58;7.30;99.90
23411;DHT22;11878;51.774;7.220;2023-12-20T19:01:00;7.30;99.90
23411;DHT22;11878;51.774;7.220;2023-12-20T19:04:03;7.30;99.90
23411;DHT22;11878;51.774;7.220;2023-12-20T19:07:05;7.30;99.90
23411;DHT22;11878;51.774;7.220;2023-12-20T19:10:07;7.30;99.90
23411;DHT22;11878;51.774;7.220;2023-12-20T19:13:08;7.40;99.90
23411;DHT22;11878;51.774;7.220;2023-12-20T19:16:10;7.30;99.90
23411;DHT22;11878;51.774;7.220;2023-12-20T19:19:13;7.30;99.90
23411;DHT22;11878;51.774;7.220;2023-12-20T19:22:15;7.40;99.90
23411;DHT22;11878;51.774;7.220;2023-12-20T19:25:17;7.40;99.90
23411;DHT22;11878;51.774;7.220;2023-12-20T19:28:18;7.40;99.90
23411;DHT22;11878;51.774;7.220;2023-12-20T19:31:22;7.40;99.90
23411;DHT22;11878;51.774;7.220;2023-12-20T19:34:23;7.40;99.90
23411;DHT22;11878;51.774;7.220;2023-12-20T19:37:25;7.40;99.90